• Join FlightAware (Why Join?)
  • Login
  • US Flag 
06:28PM EDT


 

Airport Tracker/Info


-or-


 

Live Flight TrackerFlight Track Log ✈ N749SS ✈ 31-Oct-2013 ✈ KAPF - KHPN

Flight Track Log - Related Links

Times and Time Zones

All times are in EDT time to prevent confusion due to time zone crossing. See the N749SS flight status page for this flight to view local times or setup timezone preferences in your user account.

Time Position Orientation Groundspeed Altitude Reporting Facility
EDT Latitude Longitude Course Direction KTS MPH feet Rate Location/Type
03:04PM 26.2336 -81.6508 342° North 250 288 7,000  Level Miami Center
03:05PM 26.3078 -81.6214 20° North 263 303 10,300 3,000 Climbing Miami Center
03:06PM 26.3903 -81.6525 341° North 278 320 13,100 2,520 Climbing Miami Center
03:07PM 26.4811 -81.6769 346° North 315 362 15,400 2,100 Climbing Miami Center
03:08PM 26.5850 -81.6950 351° North 336 387 17,300 1,800 Climbing Miami Center
03:09PM 26.7763 -81.4918 342° North  Level Estimated
03:09PM 26.6953 -81.7067 355° North 376 433 19,100  Level Miami Center
03:10PM 26.8075 -81.7206 354° North 392 451 21,000 1,920 Climbing Miami Center
03:11PM 26.9219 -81.7322 355° North 403 464 23,000 2,040 Climbing Miami Center
03:12PM 27.0361 -81.7489 353° North 408 470 25,100 1,920 Climbing Miami Center
03:13PM 27.1497 -81.7886 343° North 414 476 26,900 1,800 Climbing Miami Center
03:14PM 27.2486 -81.8256 342° North 414 476 28,800 2,040 Climbing Miami Center
03:15PM 27.3744 -81.8683 343° North 422 486 31,000 1,800 Climbing Miami Center
03:16PM 27.4872 -81.8661 North 416 479 32,400 1,560 Climbing Miami Center
03:17PM 27.6044 -81.8525 North 412 474 34,200 1,560 Climbing Miami Center
03:18PM 27.7136 -81.8386 North 428 493 35,600 1,440 Climbing Miami Center
03:19PM 27.8331 -81.8250 North 428 493 37,100 1,500 Climbing Miami Center
03:20PM 27.9461 -81.8089 North 423 487 38,600 900 Climbing Miami Center
03:21PM 28.0592 -81.7972 North 418 481 39,000 180 Climbing Miami Center
03:22PM 28.1786 -81.7836 North 418 481 39,000  Level Miami Center
03:23PM 28.2939 -81.7700 North 418 481 39,000  Level Miami Center
03:24PM 28.4133 -81.7539 North 423 487 39,000  Level Miami Center
03:25PM 28.5286 -81.7378 North 423 487 39,000  Level Miami Center
03:26PM 28.6017 -81.7317 North 433 498 39,000  Level Jacksonville Center
03:27PM 28.7206 -81.7183 North 433 498 39,000  Level Jacksonville Center
03:28PM 28.8331 -81.7028 North 433 498 39,000  Level Jacksonville Center
03:29PM 28.9478 -81.6872 North 399 459 39,000  Level Jacksonville Center
03:30PM 29.0644 -81.6714 North 405 466 39,000  Level Jacksonville Center
03:31PM 29.1769 -81.6558 North 405 466 39,000  Level Jacksonville Center
03:32PM 29.3042 -81.6328 North 405 466 39,000  Level Jacksonville Center
03:33PM 29.4208 -81.6100 10° North 412 474 39,000  Level Jacksonville Center
03:34PM 29.5353 -81.5822 12° North 417 480 39,000  Level Jacksonville Center
03:35PM 29.6519 -81.5542 12° North 417 480 39,000  Level Jacksonville Center
03:36PM 29.7667 -81.5311 10° North 417 480 39,000  Level Jacksonville Center
03:37PM 29.8811 -81.5008 13° North 417 480 39,000  Level Jacksonville Center
03:38PM 29.9997 -81.4753 11° North 422 486 39,000  Level Jacksonville Center
03:39PM 30.1164 -81.4494 11° North 427 491 39,000  Level Jacksonville Center
03:40PM 30.2350 -81.4236 11° North 427 491 39,000  Level Jacksonville Center
03:41PM 30.3517 -81.3953 12° North 427 491 39,000  Level Jacksonville Center
03:42PM 30.4725 -81.3692 11° North 427 491 39,000 240 Level Jacksonville Center
03:43PM 30.5892 -81.3433 11° North 427 491 39,500 840 Climbing Jacksonville Center
03:44PM 30.7036 -81.3172 11° North 422 486 40,700 720 Climbing Jacksonville Center
03:45PM 30.8078 -81.2939 11° North 422 486 41,000 120 Climbing Jacksonville Center
03:46PM 30.9200 -81.2678 11° North 422 486 41,000  Level Jacksonville Center
03:47PM 31.0306 -81.2439 10° North 408 470 41,000  Level Jacksonville Center
03:48PM 31.1450 -81.2178 11° North 408 470 41,000  Level Jacksonville Center
03:49PM 31.2553 -81.1939 10° North 408 470 41,000  Level Jacksonville Center
03:50PM 31.3736 -81.1431 20° North 403 464 41,000  Level Jacksonville Center
03:51PM 31.4750 -81.0706 31° Northeast 419 482 41,000  Level Jacksonville Center
03:52PM 31.5678 -81.0028 32° Northeast 432 497 41,000  Level Jacksonville Center
03:53PM 31.6794 -80.9225 31° Northeast 426 490 41,000  Level Jacksonville Center
03:54PM 31.7722 -80.8544 32° Northeast 426 490 41,000  Level Jacksonville Center
03:55PM 31.8858 -80.7736 31° Northeast 426 490 41,000  Level Jacksonville Center
03:56PM 31.9911 -80.7003 31° Northeast 432 497 41,000  Level Jacksonville Center
03:57PM 32.0836 -80.6319 32° Northeast 432 497 41,000  Level Jacksonville Center
03:59PM 32.3000 -80.4767 31° Northeast 432 497 41,000  Level Jacksonville Center
04:00PM 32.4050 -80.4000 32° Northeast 427 491 41,000  Level Jacksonville Center
04:01PM 32.5078 -80.3233 32° Northeast 427 491 41,000  Level Jacksonville Center
04:02PM 32.6086 -80.2489 32° Northeast 427 491 41,000  Level Jacksonville Center
04:03PM 32.7114 -80.1719 32° Northeast 427 491 41,000  Level Jacksonville Center
04:04PM 32.8142 -80.0944 32° Northeast 427 491 41,000  Level Jacksonville Center
04:05PM 32.9167 -80.0122 34° Northeast 427 491 41,000  Level Jacksonville Center
04:06PM 33.0147 -79.9200 38° Northeast 438 504 41,000  Level Jacksonville Center
04:07PM 33.1044 -79.8325 39° Northeast 450 518 41,000  Level Jacksonville Center
04:08PM 33.2003 -79.7400 39° Northeast 451 519 41,000  Level Jacksonville Center
04:09PM 33.2961 -79.6497 38° Northeast 451 519 41,000  Level Jacksonville Center
04:10PM 33.3917 -79.5542 40° Northeast 451 519 41,000  Level Jacksonville Center
04:11PM 33.4914 -79.4583 39° Northeast 451 519 41,000  Level Jacksonville Center
04:12PM 33.5867 -79.3622 40° Northeast 446 513 41,000  Level Jacksonville Center
04:14PM 33.7997 -79.1528 39° Northeast 450 518 41,000  Level Washington Center
04:15PM 33.8986 -79.0544 40° Northeast 450 518 41,000  Level Washington Center
04:16PM 33.9950 -78.9581 40° Northeast 450 518 41,000  Level Washington Center
04:17PM 34.0917 -78.8617 40° Northeast 450 518 41,000  Level Washington Center
04:18PM 34.1881 -78.7678 39° Northeast 444 511 41,000  Level Washington Center
04:19PM 34.2825 -78.6708 40° Northeast 439 505 41,000  Level Washington Center
04:20PM 34.3808 -78.5739 39° Northeast 439 505 41,000  Level Washington Center
04:21PM 34.4750 -78.4764 40° Northeast 439 505 41,000 -540 Level Washington Center
04:22PM 34.5839 -78.3719 38° Northeast 449 517 40,000 -1,020 Descending Washington Center
04:23PM 34.6903 -78.2897 32° Northeast 449 517 39,000 -540 Descending Washington Center
04:24PM 34.7942 -78.2072 33° Northeast 449 517 39,000  Level Washington Center
04:25PM 34.9003 -78.1219 33° Northeast 449 517 39,000  Level Washington Center
04:26PM 35.0086 -78.0339 34° Northeast 449 517 39,000  Level Washington Center
04:27PM 35.1125 -77.9483 34° Northeast 449 517 39,000  Level Washington Center
04:28PM 35.2186 -77.8625 33° Northeast 449 517 39,000  Level Washington Center
04:29PM 35.3267 -77.7764 33° Northeast 449 517 39,000  Level Washington Center
04:30PM 35.4325 -77.6925 33° Northeast 449 517 39,000  Level Washington Center
04:31PM 35.5403 -77.6033 34° Northeast 449 517 39,000  Level Washington Center
04:32PM 35.6503 -77.5167 33° Northeast 449 517 39,000  Level Washington Center
04:33PM 35.7561 -77.4272 34° Northeast 449 517 39,000  Level Washington Center
04:34PM 35.8636 -77.3400 33° Northeast 449 517 39,000  Level Washington Center
04:35PM 35.9692 -77.2525 34° Northeast 455 524 39,000  Level Washington Center
04:36PM 36.0747 -77.1647 34° Northeast 455 524 39,000  Level Washington Center
04:37PM 36.1781 -77.0767 35° Northeast 450 518 39,000  Level Washington Center
04:38PM 36.2836 -76.9911 33° Northeast 445 512 39,000  Level Washington Center
04:39PM 36.3908 -76.9028 34° Northeast 445 512 39,000  Level Washington Center
04:40PM 36.4942 -76.8139 35° Northeast 445 512 39,000  Level Washington Center
04:41PM 36.5992 -76.7278 33° Northeast 445 512 39,000  Level Washington Center
04:42PM 36.7044 -76.6411 33° Northeast 445 512 39,000  Level Washington Center
04:43PM 36.8094 -76.5467 36° Northeast 450 518 39,000  Level Washington Center
04:44PM 36.9122 -76.4569 35° Northeast 455 524 39,000  Level Washington Center
04:45PM 37.0089 -76.3747 34° Northeast 455 524 39,000  Level Washington Center
04:46PM 37.1136 -76.2819 35° Northeast 450 518 39,000  Level Washington Center
04:47PM 37.2186 -76.1944 34° Northeast 450 518 39,000  Level Washington Center
04:48PM 37.3400 -76.0986 32° Northeast 450 518 39,000  Level Washington Center
04:49PM 37.4444 -76.0078 35° Northeast 460 529 39,000  Level Washington Center
04:50PM 37.5367 -75.9269 35° Northeast 460 529 39,000  Level Washington Center
04:51PM 37.6411 -75.8358 35° Northeast 455 524 39,000  Level Washington Center
04:52PM 37.7475 -75.7414 35° Northeast 455 524 39,000  Level Washington Center
04:53PM 37.8519 -75.6497 35° Northeast 455 524 39,000  Level Washington Center
04:54PM 37.9561 -75.5603 34° Northeast 450 518 39,000  Level Washington Center
04:55PM 38.0606 -75.4678 35° Northeast 450 518 39,000  Level Washington Center
04:56PM 38.1708 -75.3936 28° Northeast 444 511 39,000  Level Washington Center
04:57PM 38.2833 -75.3247 26° Northeast 439 505 39,000  Level Washington Center
04:58PM 38.4042 -75.2472 27° Northeast 434 499 39,000  Level Washington Center
04:59PM 38.5164 -75.1750 27° Northeast 434 499 39,000  Level Washington Center
05:00PM 38.6286 -75.1028 27° Northeast 439 505 39,000  Level Washington Center
05:01PM 38.7411 -75.0328 26° Northeast 444 511 39,000  Level Washington Center
05:02PM 38.8531 -74.9600 27° Northeast 444 511 39,000 -540 Level Washington Center
05:03PM 38.9675 -74.8867 26° Northeast 444 511 38,000 -1,260 Descending Washington Center
05:04PM 39.0836 -74.8081 28° Northeast 449 517 36,500 -1,860 Descending Washington Center
05:05PM 39.1914 -74.7053 36° Northeast 463 533 34,300 -2,580 Descending Washington Center
05:06PM 39.2967 -74.5939 39° Northeast 470 541 31,500 -3,000 Descending Washington Center
05:07PM 39.4000 -74.4850 39° Northeast 480 552 28,400 -3,120 Descending Washington Center
05:09PM 39.5533 -74.3275 38° Northeast 495 570 24,100 -2,040 Descending New York Center
05:10PM 39.6633 -74.2092 40° Northeast 501 577 23,600 -600 Descending New York Center
05:11PM 39.7708 -74.0956 39° Northeast 501 577 23,000 -300 Descending New York Center
05:12PM 39.8697 -73.9894 39° Northeast 483 556 23,000 -600 Level New York Center
05:13PM 39.9556 -73.8986 39° Northeast 436 502 21,800 -1,440 Descending New York Center
05:15PM 40.1364 -73.6486 47° Northeast 389 448 18,000 -1,080 Descending Boston Center
05:16PM 40.1928 -73.5292 58° Northeast 387 445 18,000  Level Boston Center
05:17PM 40.2514 -73.4108 57° Northeast 391 450 18,000  Level Boston Center
05:18PM 40.3189 -73.3097 49° Northeast 373 429 18,000  Level Boston Center
05:19PM 40.3786 -73.2111 51° Northeast 349 402 18,000  Level Boston Center
05:20PM 40.4464 -73.1006 51° Northeast 326 375 18,000  Level Boston Center
05:21PM 40.5036 -73.0072 51° Northeast 328 377 18,000  Level Boston Center
05:22PM 40.5619 -72.9111 51° Northeast 338 389 18,000  Level Boston Center
05:23PM 40.6200 -72.8142 52° Northeast 339 390 18,000  Level Boston Center
05:24PM 40.6769 -72.7208 51° Northeast 334 384 18,000  Level Boston Center
05:25PM 40.7331 -72.6264 52° Northeast 332 382 18,000  Level Boston Center
05:26PM 40.7894 -72.5322 52° Northeast 333 383 18,000  Level Boston Center
05:27PM 40.8597 -72.4169 51° Northeast 340 391 18,000  Level Boston Center
05:28PM 40.9183 -72.3194 51° Northeast 341 392 18,000  Level Boston Center
05:30PM 40.9258 -72.2067 85° East 335 386 18,000 -60 Level Boston Center
05:31PM 40.8597 -72.2069 180° South 261 300 17,900 -420 Descending Boston Center
05:32PM 40.8203 -72.2778 234° Southwest 240 276 17,200 -1,020 Descending Boston Center
05:33PM 40.7864 -72.3539 240° Southwest 245 282 15,900 -1,440 Descending Boston Center
05:34PM 40.7436 -72.4425 238° Southwest 281 323 14,400 -1,560 Descending Boston Center
05:35PM 40.7031 -72.5308 239° Southwest 280 322 12,800 -1,560 Descending Boston Center
05:36PM 40.6642 -72.6167 239° Southwest 272 313 11,300 -900 Descending Boston Center
05:37PM 40.6319 -72.7008 243° Southwest 261 300 11,000 -480 Descending Boston Center
05:38PM 40.6897 -72.7522 326° Northwest 282 325 10,400 -900 Descending Boston Center
05:39PM 40.7714 -72.7392 North 292 336 9,300 -1,200 Descending Boston Center
05:40PM 40.8519 -72.7236 North 291 335 8,000 -1,140 Descending Boston Center
05:41PM 40.9431 -72.7069 North 304 350 7,000 -540 Descending Boston Center
05:42PM 41.0003 -72.7617 324° Northwest 283 326 7,000  Level Boston Center
05:43PM 41.0281 -72.8694 289° West 265 305 7,000 -720 Level Boston Center
05:44PM 41.0503 -72.9597 288° West 261 300 5,600 -1,380 Descending Boston Center
05:45PM 41.0711 -73.0444 288° West 251 289 4,200 -900 Descending Boston Center
05:46PM 41.0911 -73.1253 288° West 238 274 3,800 -120 Descending Boston Center
05:47PM 41.1119 -73.2075 289° West 235 270 4,000 60 Climbing Boston Center
05:48PM 41.1325 -73.2919 288° West 239 275 4,000  Level Boston Center
05:49PM 41.1667 -73.4000 293° West 233 268 4,100  Climbing New York TRACON
05:50PM 41.1833 -73.4833 285° West 219 252 4,100  Level New York TRACON
05:51PM 41.2000 -73.5500 288° West 248 285 4,100 -60 Level New York TRACON
05:52PM 41.2500 -73.6333 309° West 248 285 4,000 -60 Descending New York TRACON
05:53PM 41.2833 -73.7000 304° West 221 254 4,000  Level New York TRACON
05:54PM 41.3167 -73.7500 312° West 176 203 4,000 -120 Level New York TRACON
05:55PM 41.3500 -73.8000 312° West 174 200 3,800 -540 Descending New York TRACON
05:56PM 41.3500 -73.8500 270° West 155 178 3,000 -420 Descending New York TRACON
05:57PM 41.3000 -73.8667 194° South 156 180 3,000  Level New York TRACON
05:58PM 41.2667 -73.8500 159° South 162 186 3,000  Level New York TRACON
05:59PM 41.2167 -73.8167 153° Southeast 165 190 3,000 -120 Level New York TRACON
06:00PM 41.1833 -73.8000 159° South 166 191 2,800 -540 Descending New York TRACON
06:01PM 41.1500 -73.7667 143° Southeast 157 181 2,000 -780 Descending New York TRACON
06:02PM 41.1167 -73.7333 143° Southeast 128 147 1,300 -660 Descending New York TRACON